Hlavní strana
METAR-TAF:

METAR-TAF

Letiště :

Mezinárodní letiště princezny Juliany

Sint Maarten, Nizozemské Antily

zeměpisná šířka: 18-03N, zeměpisná délka: 063-07W, výška: 4 m

Aktuální stav počasí

Zpráva byla vytvořena před 56 minutami, v 22:00 UTC
Západní vítr 3 kt
Teplota 28°C
Vlhkost vzduchu 62%
Tlak 1013 hPa
Viditelnost 10 km a více
Žádná oblačnost pod 1500 m, nevyskytují se cumulonimby.

METAR: TNCM 042200Z 26003KT CAVOK 28/20 Q1013 NOSIG

Čas: 18:56 (22:56 UTC)

Předpověď počasí

Zpráva byla vytvořena před 5 hodinami a 36 minutami, v 17:20 UTC
Předpověď platná od 04 v 18 UTC do 05 v 18 UTC
vítr z různých směrů 5 kt
Viditelnost: 10 km
Skoro jasno ve výšce 2000 ft
Skoro jasno ve výšce 6000 ft
Od 05 v 1500 UTC
vítr z různých směrů 4 kt
Viditelnost: 10 km
Skoro jasno ve výšce 2000 ft
Polojasno ve výšce 3000 ft
přeháňky v blízkosti

TAF: TNCM 041720Z 0418/0518 VRB05KT P6SM FEW020 FEW060 FM051500 VRB04KT P6SM VCSH FEW020 SCT030

Stav a předpovědi počasí z více než 4 000 letišť (zprávy METAR a TAF).

Červené a žluté tečky na mapě představují dostupné meteorologické stanice.

Když kurzor umístíte na tečku, zobrazí se název stanice.

Pak kliknutím zobrazíte stav a předpověď počasí.

Chcete-li změnit mapu, kliknutím na zelené tlačítko se znaménkem +mapu přiblížíte, kliknutím na zelené tlačítko se znaménkem – mapu oddálíte a kliknutím na zelené šipky přejdete na sousední mapy.


METAR-TAF: